Time;durP1;ratioP1;P1;durP2;ratioP2;P2;SDS_P1;SDS_P2;PMS_P1;PMS_P2;Temp;Humidity;BMP_temperature;BMP_pressure;BME280_temperature;BME280_humidity;BME280_pressure;Samples;Min_cycle;Max_cycle;Signal;HPM_P1;HPM_P2
2023/06/14 00:02:21;;;;;;;2.75;2.55;;;;;;;;;;5037443;28;20034;-63
2023/06/14 00:04:48;;;;;;;3.17;2.97;;;;;;;;;;5037537;28;20021;-62
2023/06/14 00:07:13;;;;;;;3.50;3.20;;;;;;;;;;5037358;28;20079;-58
2023/06/14 00:09:38;;;;;;;3.42;2.95;;;;;;;;;;5037514;28;20033;-58
2023/06/14 00:12:05;;;;;;;3.30;3.10;;;;;;;;;;5037614;28;20028;-58
2023/06/14 00:14:31;;;;;;;3.17;2.95;;;;;;;;;;5052706;28;20109;-58
2023/06/14 00:16:58;;;;;;;3.30;3.05;;;;;;;;;;5037260;28;20465;-58
2023/06/14 00:19:24;;;;;;;2.83;2.63;;;;;;;;;;5037432;28;20044;-59
2023/06/14 00:21:51;;;;;;;3.08;2.88;;;;;;;;;;5037274;28;20025;-59
2023/06/14 00:24:17;;;;;;;3.05;2.85;;;;;;;;;;5037021;28;20123;-62
2023/06/14 00:26:42;;;;;;;3.00;2.80;;;;;;;;;;5037146;28;20061;-63
2023/06/14 00:29:07;;;;;;;2.92;2.70;;;;;;;;;;5036698;28;20029;-59
2023/06/14 00:31:33;;;;;;;2.80;2.60;;;;;;;;;;5036867;28;20026;-60
2023/06/14 00:33:58;;;;;;;2.97;2.78;;;;;;;;;;5036762;28;20525;-62
2023/06/14 00:36:23;;;;;;;3.03;2.72;;;;;;;;;;5036688;28;20408;-63
2023/06/14 00:38:49;;;;;;;3.22;2.92;;;;;;;;;;5036396;28;20350;-63
2023/06/14 00:41:14;;;;;;;3.35;2.80;;;;;;;;;;5068350;28;20069;-63
2023/06/14 00:43:41;;;;;;;4.13;2.90;;;;;;;;;;5035306;28;20030;-62
2023/06/14 00:46:07;;;;;;;2.97;2.78;;;;;;;;;;5068755;28;20026;-62
2023/06/14 00:48:32;;;;;;;3.17;2.97;;;;;;;;;;5036538;28;20397;-62
2023/06/14 00:51:01;;;;;;;3.33;3.10;;;;;;;;;;5051520;28;20030;-64
2023/06/14 00:53:27;;;;;;;3.30;3.00;;;;;;;;;;5036678;28;20472;-62
2023/06/14 00:55:53;;;;;;;3.13;2.92;;;;;;;;;;5036305;28;20037;-63
2023/06/14 00:58:19;;;;;;;3.28;3.08;;;;;;;;;;5051471;28;20054;-63
2023/06/14 01:00:45;;;;;;;3.50;3.08;;;;;;;;;;5036497;28;20037;-63
2023/06/14 01:03:12;;;;;;;3.20;2.95;;;;;;;;;;5036332;28;20025;-62
2023/06/14 01:05:38;;;;;;;2.95;2.75;;;;;;;;;;5036067;28;20037;-62
2023/06/14 01:08:06;;;;;;;3.42;3.20;;;;;;;;;;5036339;28;20013;-62
2023/06/14 01:10:44;;;;;;;3.50;3.28;;;;;;;;;;5067907;28;20111;-62
2023/06/14 01:13:19;;;;;;;2.97;2.78;;;;;;;;;;5036246;28;20033;-64
2023/06/14 01:15:46;;;;;;;3.22;2.95;;;;;;;;;;5035628;28;20031;-63
2023/06/14 01:18:17;;;;;;;3.58;3.38;;;;;;;;;;5034961;28;20037;-63
2023/06/14 01:20:44;;;;;;;3.65;3.35;;;;;;;;;;5051396;28;20432;-63
2023/06/14 01:23:12;;;;;;;4.25;3.70;;;;;;;;;;5035987;28;20549;-59
2023/06/14 01:25:38;;;;;;;3.80;3.30;;;;;;;;;;5035421;28;20048;-58
2023/06/14 01:28:10;;;;;;;3.38;3.08;;;;;;;;;;5050867;28;20028;-58
2023/06/14 01:30:37;;;;;;;3.53;3.17;;;;;;;;;;5051167;28;20029;-58
2023/06/14 01:33:04;;;;;;;3.63;3.33;;;;;;;;;;5035967;28;20412;-62
2023/06/14 01:35:31;;;;;;;3.33;3.03;;;;;;;;;;5051143;28;20492;-63
2023/06/14 01:37:56;;;;;;;3.28;3.08;;;;;;;;;;5035879;28;20048;-63
2023/06/14 01:40:22;;;;;;;3.42;3.13;;;;;;;;;;5050987;28;20439;-63
2023/06/14 01:42:49;;;;;;;3.25;3.05;;;;;;;;;;5035648;28;20081;-63
2023/06/14 01:45:15;;;;;;;3.78;3.47;;;;;;;;;;5035529;28;20022;-63
2023/06/14 01:47:40;;;;;;;4.38;3.97;;;;;;;;;;5035670;28;20067;-63
2023/06/14 01:50:06;;;;;;;4.00;3.70;;;;;;;;;;5050958;28;20045;-63
2023/06/14 01:52:31;;;;;;;4.10;3.72;;;;;;;;;;5034975;28;20029;-58
2023/06/14 01:54:57;;;;;;;4.10;3.70;;;;;;;;;;5034920;28;20033;-58
2023/06/14 01:57:24;;;;;;;4.20;3.83;;;;;;;;;;5034038;28;20061;-58
2023/06/14 01:59:50;;;;;;;3.38;3.13;;;;;;;;;;5050718;28;20026;-58
2023/06/14 02:02:16;;;;;;;3.70;3.38;;;;;;;;;;5035416;28;20035;-58
2023/06/14 02:04:41;;;;;;;3.90;3.60;;;;;;;;;;5066312;28;20120;-57
2023/06/14 02:07:07;;;;;;;4.15;3.80;;;;;;;;;;5050607;28;20029;-58
2023/06/14 02:09:33;;;;;;;3.55;3.25;;;;;;;;;;5035055;28;20029;-59
2023/06/14 02:11:58;;;;;;;3.88;3.38;;;;;;;;;;5035382;28;20030;-58
2023/06/14 02:14:26;;;;;;;3.15;2.88;;;;;;;;;;5035082;28;20025;-58
2023/06/14 02:16:52;;;;;;;3.33;3.00;;;;;;;;;;5066978;28;20150;-58
2023/06/14 02:19:18;;;;;;;2.83;2.63;;;;;;;;;;5050381;28;20500;-58
2023/06/14 02:21:44;;;;;;;3.03;2.83;;;;;;;;;;5034718;28;20025;-58
2023/06/14 02:24:12;;;;;;;3.25;3.05;;;;;;;;;;5050116;28;20025;-58
2023/06/14 02:26:41;;;;;;;2.97;2.78;;;;;;;;;;5050066;28;20390;-58
2023/06/14 02:29:09;;;;;;;2.95;2.75;;;;;;;;;;5035044;28;20082;-58
2023/06/14 02:31:35;;;;;;;3.10;2.80;;;;;;;;;;5033660;28;20167;-61
2023/06/14 02:34:01;;;;;;;3.15;2.95;;;;;;;;;;5049790;28;20116;-62
2023/06/14 02:36:27;;;;;;;3.33;3.13;;;;;;;;;;5034505;28;20120;-62
2023/06/14 02:38:54;;;;;;;3.40;3.03;;;;;;;;;;5034291;28;20026;-62
2023/06/14 02:41:19;;;;;;;2.75;2.63;;;;;;;;;;5034569;28;20349;-62
2023/06/14 02:43:44;;;;;;;2.90;2.67;;;;;;;;;;5032881;28;20033;-62
2023/06/14 02:46:11;;;;;;;3.17;2.97;;;;;;;;;;5032369;28;20041;-62
2023/06/14 02:48:36;;;;;;;3.03;2.72;;;;;;;;;;5032810;28;20040;-62
2023/06/14 02:51:01;;;;;;;3.60;2.80;;;;;;;;;;5034453;28;20017;-62
2023/06/14 02:53:27;;;;;;;2.83;2.63;;;;;;;;;;5049780;28;20021;-63
2023/06/14 02:55:55;;;;;;;3.13;2.92;;;;;;;;;;5066429;28;20120;-62
2023/06/14 02:58:21;;;;;;;2.63;2.50;;;;;;;;;;5032575;28;20049;-62
2023/06/14 03:00:46;;;;;;;2.90;2.70;;;;;;;;;;5034408;28;20029;-63
2023/06/14 03:03:15;;;;;;;2.80;2.60;;;;;;;;;;5033096;28;20044;-63
2023/06/14 03:05:47;;;;;;;3.00;2.72;;;;;;;;;;5034042;28;20022;-63
2023/06/14 03:08:16;;;;;;;3.30;2.85;;;;;;;;;;5016539;28;20465;-62
2023/06/14 03:10:43;;;;;;;2.90;2.72;;;;;;;;;;5049443;28;20044;-63
2023/06/14 03:13:08;;;;;;;3.05;2.85;;;;;;;;;;5065733;28;20033;-63
2023/06/14 03:15:35;;;;;;;3.15;2.95;;;;;;;;;;5032776;28;20108;-63
2023/06/14 03:18:01;;;;;;;3.17;2.97;;;;;;;;;;5032684;28;20083;-62
2023/06/14 03:20:28;;;;;;;2.83;2.63;;;;;;;;;;5065536;28;20021;-63
2023/06/14 03:22:54;;;;;;;2.97;2.78;;;;;;;;;;5065596;28;20029;-62
2023/06/14 03:25:21;;;;;;;3.33;3.13;;;;;;;;;;5048956;28;20392;-62
2023/06/14 03:27:49;;;;;;;3.08;2.88;;;;;;;;;;5048647;28;20010;-62
2023/06/14 03:30:14;;;;;;;3.17;2.90;;;;;;;;;;5032002;28;20112;-62
2023/06/14 03:32:41;;;;;;;2.67;2.58;;;;;;;;;;5065748;28;20036;-63
2023/06/14 03:35:08;;;;;;;2.90;2.70;;;;;;;;;;5048727;28;20029;-63
2023/06/14 03:37:34;;;;;;;3.15;2.95;;;;;;;;;;5048897;28;20053;-63
2023/06/14 03:40:00;;;;;;;3.35;3.15;;;;;;;;;;5049006;28;20029;-62
2023/06/14 03:42:26;;;;;;;3.25;3.05;;;;;;;;;;5032364;28;20040;-63
2023/06/14 03:44:52;;;;;;;2.97;2.78;;;;;;;;;;5033677;28;20022;-63
2023/06/14 03:47:21;;;;;;;3.08;2.88;;;;;;;;;;5065570;28;20022;-64
2023/06/14 03:49:47;;;;;;;2.88;2.67;;;;;;;;;;5033821;28;20116;-63
2023/06/14 03:52:13;;;;;;;3.90;2.97;;;;;;;;;;5033718;28;20496;-59
2023/06/14 03:54:43;;;;;;;3.20;3.00;;;;;;;;;;5049013;28;20036;-58
2023/06/14 03:57:09;;;;;;;3.35;3.15;;;;;;;;;;5031720;28;20056;-58
2023/06/14 03:59:35;;;;;;;4.68;4.28;;;;;;;;;;5032749;28;20029;-59
2023/06/14 04:02:00;;;;;;;5.43;4.72;;;;;;;;;;5048276;28;20030;-65
2023/06/14 04:04:29;;;;;;;4.78;4.47;;;;;;;;;;5033059;28;20449;-60
2023/06/14 04:06:56;;;;;;;5.53;5.03;;;;;;;;;;5049223;28;20104;-56
2023/06/14 04:09:24;;;;;;;4.82;4.53;;;;;;;;;;5030417;28;20018;-58
2023/06/14 04:11:50;;;;;;;5.45;5.00;;;;;;;;;;5033381;28;20026;-58
2023/06/14 04:14:16;;;;;;;4.30;4.07;;;;;;;;;;5031931;28;20031;-58
2023/06/14 04:16:44;;;;;;;6.15;5.75;;;;;;;;;;5048529;28;20112;-56
2023/06/14 04:19:10;;;;;;;5.43;5.03;;;;;;;;;;5047961;28;20030;-59
2023/06/14 04:21:36;;;;;;;5.93;5.05;;;;;;;;;;5048401;28;20021;-59
2023/06/14 04:24:03;;;;;;;5.30;4.93;;;;;;;;;;5031792;28;20026;-59
2023/06/14 04:26:33;;;;;;;5.85;5.45;;;;;;;;;;5048846;28;20032;-59
2023/06/14 04:29:03;;;;;;;6.13;5.63;;;;;;;;;;5050380;28;20107;-59
2023/06/14 04:31:33;;;;;;;8.70;7.90;;;;;;;;;;5035580;28;20053;-59
2023/06/14 04:33:59;;;;;;;7.15;6.45;;;;;;;;;;5034876;28;20051;-59
2023/06/14 04:36:27;;;;;;;5.63;5.13;;;;;;;;;;5034985;28;20528;-59
2023/06/14 04:38:54;;;;;;;4.55;4.15;;;;;;;;;;5034584;28;20033;-59
2023/06/14 04:41:22;;;;;;;4.88;4.57;;;;;;;;;;5050001;28;20442;-59
2023/06/14 04:43:49;;;;;;;4.93;4.63;;;;;;;;;;5067457;28;20117;-59
2023/06/14 04:46:15;;;;;;;4.72;4.43;;;;;;;;;;5051636;28;20121;-59
2023/06/14 04:48:42;;;;;;;4.55;4.25;;;;;;;;;;5034545;28;20105;-59
2023/06/14 04:51:09;;;;;;;3.85;3.55;;;;;;;;;;5050879;28;20128;-59
2023/06/14 04:53:35;;;;;;;4.45;3.88;;;;;;;;;;5051305;28;20104;-59
2023/06/14 04:56:01;;;;;;;3.22;3.03;;;;;;;;;;5050722;28;20022;-59
2023/06/14 04:58:29;;;;;;;3.88;3.67;;;;;;;;;;5033900;28;20052;-65
2023/06/14 05:00:56;;;;;;;3.30;3.10;;;;;;;;;;5052376;28;20076;-59
2023/06/14 05:03:23;;;;;;;3.58;3.28;;;;;;;;;;5034397;28;20071;-59
2023/06/14 05:05:50;;;;;;;3.08;2.88;;;;;;;;;;5033789;28;20045;-59
2023/06/14 05:08:16;;;;;;;3.33;3.13;;;;;;;;;;5035068;28;20361;-59
2023/06/14 05:10:42;;;;;;;2.80;2.70;;;;;;;;;;5034767;28;20122;-59
2023/06/14 05:13:07;;;;;;;2.73;2.53;;;;;;;;;;5050918;28;20489;-59
2023/06/14 05:15:33;;;;;;;3.10;2.90;;;;;;;;;;5051252;28;20272;-59
2023/06/14 05:17:59;;;;;;;2.15;2.05;;;;;;;;;;5034692;28;20038;-59
2023/06/14 05:20:25;;;;;;;1.95;1.70;;;;;;;;;;5050549;28;20076;-59
2023/06/14 05:22:52;;;;;;;2.50;2.40;;;;;;;;;;5049208;28;20022;-58
2023/06/14 05:25:18;;;;;;;2.95;2.85;;;;;;;;;;5034713;28;20116;-62
2023/06/14 05:27:44;;;;;;;2.25;2.13;;;;;;;;;;5034961;28;20065;-63
2023/06/14 05:30:09;;;;;;;1.30;1.30;;;;;;;;;;5034666;28;20107;-63
2023/06/14 05:32:35;;;;;;;1.00;1.00;;;;;;;;;;5034522;28;20017;-61
2023/06/14 05:35:00;;;;;;;0.80;0.80;;;;;;;;;;5050245;28;20030;-61
2023/06/14 05:37:25;;;;;;;0.90;0.90;;;;;;;;;;5035139;28;20025;-61
2023/06/14 05:39:51;;;;;;;0.77;0.77;;;;;;;;;;5034535;28;20099;-61
2023/06/14 05:42:16;;;;;;;0.80;0.80;;;;;;;;;;5051178;28;20112;-61
2023/06/14 05:44:49;;;;;;;0.85;0.85;;;;;;;;;;5035177;28;20025;-61
2023/06/14 05:47:15;;;;;;;0.68;0.68;;;;;;;;;;5035267;28;20116;-61
2023/06/14 05:49:41;;;;;;;0.93;0.93;;;;;;;;;;5033633;28;20124;-61
2023/06/14 05:52:07;;;;;;;0.95;0.95;;;;;;;;;;5034997;28;20025;-61
2023/06/14 05:54:32;;;;;;;1.00;1.00;;;;;;;;;;5035731;28;20029;-61
2023/06/14 06:00:33;;;;;;;1.23;0.98;;;;;;;;;;5035263;28;20210;-61
2023/06/14 06:06:33;;;;;;;19.35;16.05;;;;;;;;;;5035089;28;20125;-61
2023/06/14 06:12:33;;;;;;;4.80;4.50;;;;;;;;;;5035277;28;20099;-61
2023/06/14 06:18:33;;;;;;;1.55;1.08;;;;;;;;;;5034885;28;20144;-61
2023/06/14 06:24:33;;;;;;;1.35;1.35;;;;;;;;;;5034695;28;20074;-62
2023/06/14 06:30:34;;;;;;;1.83;1.73;;;;;;;;;;5034683;28;20148;-61
2023/06/14 06:36:35;;;;;;;2.80;2.60;;;;;;;;;;5034587;28;20126;-61
2023/06/14 06:42:36;;;;;;;3.88;3.67;;;;;;;;;;5034614;28;20027;-61
2023/06/14 06:48:39;;;;;;;2.25;2.15;;;;;;;;;;5034357;28;20041;-61
2023/06/14 06:54:40;;;;;;;10.88;8.80;;;;;;;;;;5034221;28;20124;-61
2023/06/14 07:05:09;;;;;;;73.20;55.85;;;;;;;;;;5033828;28;20067;-62
2023/06/14 07:11:12;;;;;;;26.67;24.25;;;;;;;;;;5034016;28;20031;-61
2023/06/14 07:17:13;;;;;;;9.63;8.75;;;;;;;;;;5033940;28;20079;-61
2023/06/14 07:23:14;;;;;;;35.75;26.50;;;;;;;;;;5033860;28;20031;-61
2023/06/14 07:29:16;;;;;;;2.67;2.58;;;;;;;;;;5033869;28;20171;-61
2023/06/14 07:35:17;;;;;;;3.25;3.05;;;;;;;;;;5033758;28;20040;-61
2023/06/14 07:41:17;;;;;;;22.77;13.20;;;;;;;;;;5033750;28;20143;-61
2023/06/14 07:47:18;;;;;;;24.13;14.57;;;;;;;;;;5033657;28;20508;-61
2023/06/14 07:53:18;;;;;;;17.02;10.60;;;;;;;;;;5033604;28;20473;-61
2023/06/14 08:09:39;;;;;;;38.97;15.27;;;;;;;;;;5037363;28;20032;-61
2023/06/14 08:15:39;;;;;;;596.90;260.65;;;;;;;;;;5037189;28;20155;-61
2023/06/14 08:21:39;;;;;;;46.67;22.08;;;;;;;;;;5037113;28;20487;-61
2023/06/14 08:27:40;;;;;;;30.67;14.88;;;;;;;;;;5037001;28;20036;-60
2023/06/14 08:33:43;;;;;;;11.07;8.70;;;;;;;;;;5036650;28;20136;-60
2023/06/14 08:39:43;;;;;;;5.18;4.78;;;;;;;;;;5036950;28;20028;-60
2023/06/14 08:45:46;;;;;;;9.05;7.55;;;;;;;;;;5036439;28;20124;-61
2023/06/14 08:51:47;;;;;;;9.60;7.75;;;;;;;;;;5036784;28;20031;-61
2023/06/14 08:57:49;;;;;;;18.58;16.60;;;;;;;;;;5036650;28;20032;-61
2023/06/14 09:08:18;;;;;;;6.50;5.90;;;;;;;;;;5036343;28;20071;-61
2023/06/14 09:14:19;;;;;;;5.15;4.40;;;;;;;;;;5036136;28;20032;-61
2023/06/14 09:20:20;;;;;;;5.20;4.80;;;;;;;;;;5036054;28;20206;-61
2023/06/14 09:26:22;;;;;;;752.47;343.58;;;;;;;;;;5035572;28;20035;-61
2023/06/14 09:32:23;;;;;;;2.92;2.83;;;;;;;;;;5035820;28;20507;-61
2023/06/14 09:38:24;;;;;;;2.33;2.17;;;;;;;;;;5035715;28;20523;-61
2023/06/14 09:44:28;;;;;;;3.30;2.78;;;;;;;;;;5035617;28;20123;-61
2023/06/14 09:50:28;;;;;;;2.90;2.70;;;;;;;;;;5035468;28;20139;-62
2023/06/14 09:56:30;;;;;;;7.38;4.88;;;;;;;;;;5035110;28;20410;-61
2023/06/14 10:12:49;;;;;;;2.50;2.40;;;;;;;;;;5034989;28;20030;-61
2023/06/14 10:18:52;;;;;;;3.15;2.95;;;;;;;;;;5034957;28;20076;-61
2023/06/14 10:25:12;;;;;;;3.45;3.15;;;;;;;;;;5034216;28;20087;-61
2023/06/14 10:31:13;;;;;;;3.53;3.33;;;;;;;;;;5034695;28;20116;-62
2023/06/14 10:37:14;;;;;;;3.75;3.40;;;;;;;;;;5034602;28;20412;-61
2023/06/14 10:43:23;;;;;;;7.07;6.10;;;;;;;;;;5034252;28;20032;-61
2023/06/14 10:49:42;;;;;;;3.40;3.20;;;;;;;;;;5034411;28;20024;-61
2023/06/14 10:55:56;;;;;;;10.77;7.07;;;;;;;;;;5034258;28;20147;-61
2023/06/14 11:01:56;;;;;;;9.82;5.95;;;;;;;;;;5034198;28;20024;-61
2023/06/14 11:12:27;;;;;;;5.45;4.93;;;;;;;;;;5034255;28;20492;-61
2023/06/14 11:18:28;;;;;;;5.43;4.93;;;;;;;;;;5033954;28;20079;-61
2023/06/14 11:24:29;;;;;;;109.82;74.85;;;;;;;;;;5033625;28;20565;-61
2023/06/14 11:30:30;;;;;;;4.80;4.50;;;;;;;;;;5033846;28;20032;-61
2023/06/14 11:36:30;;;;;;;17.75;11.95;;;;;;;;;;5034801;28;20599;-61
2023/06/14 11:42:31;;;;;;;4.57;4.22;;;;;;;;;;5037847;28;20112;-61
2023/06/14 11:48:38;;;;;;;15.68;9.25;;;;;;;;;;5037716;28;20029;-61
2023/06/14 11:54:42;;;;;;;12.60;8.13;;;;;;;;;;5037740;28;20404;-61
2023/06/14 12:58:19;;;;;;;4.03;3.72;;;;;;;;;;5018440;28;20098;-61
2023/06/14 13:00:44;;;;;;;4.22;3.92;;;;;;;;;;5011714;28;20120;-62
2023/06/14 13:03:10;;;;;;;5.50;4.75;;;;;;;;;;5014791;28;20184;-64
2023/06/14 13:05:36;;;;;;;4.32;3.92;;;;;;;;;;5031002;28;20050;-65
2023/06/14 13:08:02;;;;;;;3.30;3.10;;;;;;;;;;5032041;28;20110;-65
2023/06/14 13:10:28;;;;;;;5.03;4.53;;;;;;;;;;5014890;28;20113;-61
2023/06/14 13:12:53;;;;;;;3.80;3.50;;;;;;;;;;5015703;28;20045;-61
2023/06/14 13:15:18;;;;;;;5.13;4.22;;;;;;;;;;5014885;28;20466;-61
2023/06/14 13:17:48;;;;;;;4.90;4.50;;;;;;;;;;5015019;28;20034;-61
2023/06/14 13:20:13;;;;;;;4.88;4.45;;;;;;;;;;5014682;28;20077;-61
2023/06/14 13:22:39;;;;;;;6.30;4.53;;;;;;;;;;4997999;28;20128;-61
2023/06/14 13:25:05;;;;;;;6.60;4.95;;;;;;;;;;5032818;28;20719;-61
2023/06/14 13:27:30;;;;;;;4.45;3.92;;;;;;;;;;5004729;28;20437;-61
2023/06/14 13:29:56;;;;;;;4.10;3.70;;;;;;;;;;5014701;28;20038;-61
2023/06/14 13:32:21;;;;;;;4.20;3.83;;;;;;;;;;5037795;28;20030;-61
2023/06/14 13:34:47;;;;;;;4.43;4.13;;;;;;;;;;5014793;28;20030;-61
2023/06/14 13:37:12;;;;;;;5.05;3.90;;;;;;;;;;5014470;28;20386;-64
2023/06/14 13:39:37;;;;;;;4.82;3.78;;;;;;;;;;5014862;28;20105;-62
2023/06/14 13:42:03;;;;;;;4.50;4.00;;;;;;;;;;5037656;28;20050;-64
2023/06/14 13:44:28;;;;;;;3.35;3.15;;;;;;;;;;5014087;28;20038;-64
2023/06/14 13:46:53;;;;;;;4.10;3.50;;;;;;;;;;5013879;28;20084;-64
2023/06/14 13:49:19;;;;;;;4.32;3.97;;;;;;;;;;5014296;28;20482;-64
2023/06/14 13:51:44;;;;;;;4.25;3.83;;;;;;;;;;5015537;28;20065;-64
2023/06/14 13:54:11;;;;;;;4.32;3.92;;;;;;;;;;5014928;28;20041;-63
2023/06/14 13:56:37;;;;;;;4.18;3.72;;;;;;;;;;5014236;28;20049;-63
2023/06/14 13:59:03;;;;;;;4.28;3.97;;;;;;;;;;5012983;28;20073;-63
2023/06/14 14:01:28;;;;;;;4.65;4.25;;;;;;;;;;5013971;28;20132;-63
2023/06/14 14:03:54;;;;;;;4.28;3.97;;;;;;;;;;5014863;28;20030;-63
2023/06/14 14:06:19;;;;;;;5.10;4.70;;;;;;;;;;5014522;28;20041;-63
2023/06/14 14:08:44;;;;;;;7.63;4.95;;;;;;;;;;5014247;28;20131;-63
2023/06/14 14:11:10;;;;;;;5.43;4.93;;;;;;;;;;5015174;28;20112;-63
2023/06/14 14:13:39;;;;;;;5.10;4.70;;;;;;;;;;5014012;28;20370;-63
2023/06/14 14:16:05;;;;;;;7.32;4.85;;;;;;;;;;5013655;28;20453;-63
2023/06/14 14:18:30;;;;;;;5.00;4.40;;;;;;;;;;5013569;28;20042;-63
2023/06/14 14:20:56;;;;;;;4.50;4.20;;;;;;;;;;5014207;28;20073;-63
2023/06/14 14:23:21;;;;;;;3.88;3.58;;;;;;;;;;5029504;28;20038;-63
2023/06/14 14:25:47;;;;;;;3.60;3.30;;;;;;;;;;5014666;28;20074;-63
2023/06/14 14:28:13;;;;;;;3.53;3.33;;;;;;;;;;5030218;28;20038;-63
2023/06/14 14:30:39;;;;;;;3.88;3.58;;;;;;;;;;5015172;28;20109;-63
2023/06/14 14:33:05;;;;;;;5.03;3.90;;;;;;;;;;5015145;28;20081;-63
2023/06/14 14:35:31;;;;;;;3.78;3.47;;;;;;;;;;5030263;28;20042;-63
2023/06/14 14:37:56;;;;;;;3.70;3.40;;;;;;;;;;5014947;28;20030;-63
2023/06/14 14:40:21;;;;;;;4.50;4.20;;;;;;;;;;5014601;28;20374;-63
2023/06/14 14:42:47;;;;;;;6.75;4.60;;;;;;;;;;5014920;28;20034;-63
2023/06/14 14:45:12;;;;;;;4.57;4.20;;;;;;;;;;4980515;28;20140;-63
2023/06/14 14:47:38;;;;;;;3.60;3.40;;;;;;;;;;5014818;28;20045;-63
2023/06/14 14:50:03;;;;;;;3.50;3.30;;;;;;;;;;4996868;28;20041;-63
2023/06/14 14:52:29;;;;;;;5.13;4.65;;;;;;;;;;5014861;28;20458;-63
2023/06/14 14:54:54;;;;;;;4.63;4.30;;;;;;;;;;5014369;28;20033;-63
2023/06/14 14:57:21;;;;;;;4.60;4.30;;;;;;;;;;5014719;28;20042;-63
2023/06/14 14:59:47;;;;;;;5.72;4.50;;;;;;;;;;5014440;28;20074;-64
2023/06/14 15:02:14;;;;;;;4.70;4.22;;;;;;;;;;5014912;28;20042;-63
2023/06/14 15:04:39;;;;;;;4.82;4.13;;;;;;;;;;4996826;28;20409;-63
2023/06/14 15:07:06;;;;;;;4.43;4.13;;;;;;;;;;5013975;28;20093;-62
2023/06/14 15:09:32;;;;;;;5.45;4.10;;;;;;;;;;5077568;22;20061;-61
2023/06/14 15:11:57;;;;;;;6.70;4.13;;;;;;;;;;5053844;28;20124;-61
2023/06/14 15:14:23;;;;;;;4.07;3.78;;;;;;;;;;5054238;28;20064;-63
2023/06/14 15:16:48;;;;;;;4.57;4.28;;;;;;;;;;5053582;28;20468;-64
2023/06/14 15:19:13;;;;;;;6.38;4.07;;;;;;;;;;5053591;28;20128;-64
2023/06/14 15:21:40;;;;;;;4.00;3.67;;;;;;;;;;5052863;28;20033;-63
2023/06/14 15:24:05;;;;;;;6.82;3.78;;;;;;;;;;5035461;28;20370;-64
2023/06/14 15:26:31;;;;;;;3.67;3.38;;;;;;;;;;5053399;28;20044;-64
2023/06/14 15:28:56;;;;;;;3.60;3.40;;;;;;;;;;5053420;28;20024;-63
2023/06/14 15:31:23;;;;;;;4.15;3.40;;;;;;;;;;5053818;28;20445;-63
2023/06/14 15:33:49;;;;;;;3.90;3.63;;;;;;;;;;5053231;28;20040;-62
2023/06/14 15:36:14;;;;;;;4.00;3.60;;;;;;;;;;5054105;28;20124;-65
2023/06/14 15:38:39;;;;;;;4.00;3.70;;;;;;;;;;5053552;28;20143;-64
2023/06/14 15:41:05;;;;;;;4.18;3.80;;;;;;;;;;5053866;28;20128;-64
2023/06/14 15:43:30;;;;;;;3.40;3.20;;;;;;;;;;5035546;28;20076;-64
2023/06/14 15:45:55;;;;;;;4.18;3.33;;;;;;;;;;5052517;28;20029;-64
2023/06/14 15:48:21;;;;;;;10.05;9.05;;;;;;;;;;5052952;28;20033;-64
2023/06/14 15:50:46;;;;;;;5.78;5.38;;;;;;;;;;5035087;28;20471;-64
2023/06/14 15:53:11;;;;;;;3.90;3.50;;;;;;;;;;5052929;28;20040;-64
2023/06/14 15:55:37;;;;;;;3.50;3.30;;;;;;;;;;5052249;28;20072;-64
2023/06/14 15:58:02;;;;;;;3.15;2.95;;;;;;;;;;5052177;28;20511;-64
2023/06/14 16:00:27;;;;;;;3.03;2.83;;;;;;;;;;5052057;28;20045;-64
2023/06/14 16:02:53;;;;;;;3.95;3.65;;;;;;;;;;5052280;28;20037;-64
2023/06/14 16:05:21;;;;;;;6.57;5.15;;;;;;;;;;5051936;28;20045;-65
2023/06/14 16:07:47;;;;;;;8.80;6.10;;;;;;;;;;5017978;28;20040;-65
2023/06/14 16:10:13;;;;;;;4.00;3.70;;;;;;;;;;5051627;28;20041;-65
2023/06/14 16:12:38;;;;;;;3.97;3.58;;;;;;;;;;5052003;28;20033;-65
2023/06/14 16:15:03;;;;;;;3.33;3.08;;;;;;;;;;5034548;28;20033;-65
2023/06/14 16:17:29;;;;;;;4.20;2.95;;;;;;;;;;5034869;28;20069;-66
2023/06/14 16:19:55;;;;;;;4.00;3.53;;;;;;;;;;5034897;28;20106;-66
2023/06/14 16:22:21;;;;;;;29.80;15.45;;;;;;;;;;5051341;28;20021;-66
2023/06/14 16:24:46;;;;;;;23.27;12.88;;;;;;;;;;5037953;28;20048;-66
2023/06/14 16:27:12;;;;;;;21.17;9.38;;;;;;;;;;5056352;28;20025;-66
2023/06/14 16:29:37;;;;;;;5.07;4.45;;;;;;;;;;5036601;28;20041;-66
2023/06/14 16:32:03;;;;;;;8.25;6.70;;;;;;;;;;5053396;28;20151;-66
2023/06/14 16:34:30;;;;;;;7.22;5.90;;;;;;;;;;5054013;28;20060;-66
2023/06/14 16:36:55;;;;;;;7.90;5.97;;;;;;;;;;5035846;28;20040;-66
2023/06/14 16:39:21;;;;;;;7.57;6.80;;;;;;;;;;5054108;28;20049;-66
2023/06/14 16:41:46;;;;;;;6.00;5.47;;;;;;;;;;5055273;28;20040;-66
2023/06/14 16:44:14;;;;;;;12.30;7.68;;;;;;;;;;5054927;28;20540;-66
2023/06/14 16:46:39;;;;;;;9.85;6.80;;;;;;;;;;5054396;28;20037;-66
2023/06/14 16:49:04;;;;;;;8.75;6.80;;;;;;;;;;5037364;28;20029;-66
2023/06/14 16:51:30;;;;;;;4.60;4.30;;;;;;;;;;5055186;28;20523;-66
2023/06/14 16:53:55;;;;;;;5.45;4.95;;;;;;;;;;5055170;28;20503;-66
2023/06/14 16:56:20;;;;;;;6.00;4.70;;;;;;;;;;5037365;28;20045;-66
2023/06/14 16:58:46;;;;;;;4.25;3.95;;;;;;;;;;5055217;28;20124;-66
2023/06/14 17:01:12;;;;;;;5.30;4.88;;;;;;;;;;5020842;28;20041;-66
2023/06/14 17:03:39;;;;;;;4.50;4.03;;;;;;;;;;5055324;28;20048;-67
2023/06/14 17:06:06;;;;;;;5.32;4.18;;;;;;;;;;5055329;28;20082;-67
2023/06/14 17:08:32;;;;;;;5.47;4.95;;;;;;;;;;5054676;28;20044;-67
2023/06/14 17:10:59;;;;;;;4.68;4.18;;;;;;;;;;5055073;28;20037;-66
2023/06/14 17:13:24;;;;;;;4.60;4.00;;;;;;;;;;5055182;28;20051;-66
2023/06/14 17:15:49;;;;;;;5.97;5.10;;;;;;;;;;5054776;28;20461;-66
2023/06/14 17:18:15;;;;;;;4.53;4.13;;;;;;;;;;5036866;28;20049;-67
2023/06/14 17:20:40;;;;;;;5.07;4.57;;;;;;;;;;5054564;28;20037;-67
2023/06/14 17:23:05;;;;;;;5.68;4.93;;;;;;;;;;5054594;28;20473;-67
2023/06/14 17:25:31;;;;;;;5.13;4.55;;;;;;;;;;5054410;28;20065;-63
2023/06/14 17:27:57;;;;;;;5.40;4.40;;;;;;;;;;5036759;28;20496;-66
2023/06/14 17:30:23;;;;;;;4.65;4.32;;;;;;;;;;5036595;28;20091;-66
2023/06/14 17:32:48;;;;;;;4.97;4.47;;;;;;;;;;5036801;28;20041;-66
2023/06/14 17:35:14;;;;;;;5.22;4.70;;;;;;;;;;5053398;28;20049;-66
2023/06/14 17:37:45;;;;;;;7.97;6.05;;;;;;;;;;5055004;28;20132;-66
2023/06/14 17:40:10;;;;;;;14.88;7.75;;;;;;;;;;5054167;28;20135;-67
2023/06/14 17:42:35;;;;;;;10.52;6.70;;;;;;;;;;5054681;28;20052;-66
2023/06/14 17:45:01;;;;;;;13.27;6.70;;;;;;;;;;5054562;28;20037;-63
2023/06/14 17:47:26;;;;;;;9.85;5.70;;;;;;;;;;5036155;28;20047;-63
2023/06/14 17:49:53;;;;;;;4.20;3.80;;;;;;;;;;5054099;28;20124;-67
2023/06/14 17:52:20;;;;;;;7.68;3.55;;;;;;;;;;5052775;28;20124;-67
2023/06/14 17:54:46;;;;;;;4.75;4.35;;;;;;;;;;5036870;28;20500;-67
2023/06/14 17:57:12;;;;;;;3.45;3.25;;;;;;;;;;5036590;28;20029;-67
2023/06/14 17:59:37;;;;;;;3.20;3.00;;;;;;;;;;5054823;28;20090;-67
2023/06/14 18:02:03;;;;;;;3.85;3.47;;;;;;;;;;5054786;28;20029;-67
2023/06/14 18:04:28;;;;;;;4.15;3.78;;;;;;;;;;5036572;28;20071;-66
2023/06/14 18:06:54;;;;;;;4.90;4.40;;;;;;;;;;5036459;28;20464;-63
2023/06/14 18:09:20;;;;;;;5.07;4.43;;;;;;;;;;5054277;28;20036;-63
2023/06/14 18:11:45;;;;;;;4.88;4.45;;;;;;;;;;5054414;28;20045;-63
2023/06/14 18:14:10;;;;;;;7.82;5.97;;;;;;;;;;5036201;28;20033;-63
2023/06/14 18:16:36;;;;;;;9.70;7.55;;;;;;;;;;5036373;28;20079;-64
2023/06/14 18:19:01;;;;;;;9.35;7.68;;;;;;;;;;5054338;28;20095;-64
2023/06/14 18:21:26;;;;;;;7.53;6.57;;;;;;;;;;5052495;28;20151;-63
2023/06/14 18:23:53;;;;;;;6.50;5.35;;;;;;;;;;5054398;28;20044;-63
2023/06/14 18:26:19;;;;;;;5.57;4.10;;;;;;;;;;5036438;28;20049;-67
2023/06/14 18:28:45;;;;;;;4.32;3.92;;;;;;;;;;5054176;28;20047;-64
2023/06/14 18:31:10;;;;;;;4.40;3.72;;;;;;;;;;5053596;28;20036;-65
2023/06/14 18:33:35;;;;;;;4.72;4.43;;;;;;;;;;5036684;28;20100;-62
2023/06/14 18:36:01;;;;;;;4.78;3.72;;;;;;;;;;5054521;28;20737;-65
2023/06/14 18:38:26;;;;;;;4.88;4.30;;;;;;;;;;5036456;28;20069;-65
2023/06/14 18:40:51;;;;;;;6.80;4.72;;;;;;;;;;5036514;28;20021;-65
2023/06/14 18:43:17;;;;;;;6.85;5.05;;;;;;;;;;5054561;28;20122;-65
2023/06/14 18:45:43;;;;;;;4.60;4.22;;;;;;;;;;5054196;28;20087;-64
2023/06/14 18:48:08;;;;;;;5.72;4.95;;;;;;;;;;5036302;28;20037;-64
2023/06/14 18:50:34;;;;;;;5.80;5.00;;;;;;;;;;5054153;28;20476;-66
2023/06/14 18:52:59;;;;;;;6.63;4.90;;;;;;;;;;5053359;28;20037;-66
2023/06/14 18:55:25;;;;;;;6.57;4.88;;;;;;;;;;5054510;28;20067;-66
2023/06/14 18:57:50;;;;;;;5.43;5.03;;;;;;;;;;5053603;28;20484;-67
2023/06/14 19:00:16;;;;;;;5.38;4.70;;;;;;;;;;5053180;28;20098;-67
2023/06/14 19:02:41;;;;;;;5.20;4.80;;;;;;;;;;5053693;28;20040;-67
2023/06/14 19:05:07;;;;;;;5.35;4.88;;;;;;;;;;5035912;28;20472;-67
2023/06/14 19:07:34;;;;;;;6.43;4.55;;;;;;;;;;5053813;28;20037;-66
2023/06/14 19:09:59;;;;;;;5.90;5.05;;;;;;;;;;5048298;28;20045;-66
2023/06/14 19:12:24;;;;;;;4.85;4.40;;;;;;;;;;5053750;28;20427;-66
2023/06/14 19:14:50;;;;;;;5.65;5.15;;;;;;;;;;5052563;28;20029;-66
2023/06/14 19:17:15;;;;;;;5.72;5.13;;;;;;;;;;5051809;28;20033;-66
2023/06/14 19:19:41;;;;;;;11.30;7.72;;;;;;;;;;5053658;28;20037;-66
2023/06/14 19:22:06;;;;;;;10.30;7.05;;;;;;;;;;5053150;28;20025;-64
2023/06/14 19:24:31;;;;;;;6.80;5.85;;;;;;;;;;5052018;28;20072;-65